sensor_id;sensor_type;location;lat;lon;timestamp;P1;durP1;ratioP1;P2;durP2;ratioP2
74064;SDS011;62421;51.412;5.432;2023-07-13T00:01:58;8.07;;;1.30;;
74064;SDS011;62421;51.412;5.432;2023-07-13T00:04:24;6.93;;;1.53;;
74064;SDS011;62421;51.412;5.432;2023-07-13T00:06:50;8.25;;;1.58;;
74064;SDS011;62421;51.412;5.432;2023-07-13T00:09:17;9.70;;;1.35;;
74064;SDS011;62421;51.412;5.432;2023-07-13T00:11:43;6.03;;;1.20;;
74064;SDS011;62421;51.412;5.432;2023-07-13T00:14:09;8.18;;;1.55;;
74064;SDS011;62421;51.412;5.432;2023-07-13T00:16:36;7.18;;;1.92;;
74064;SDS011;62421;51.412;5.432;2023-07-13T00:19:04;8.52;;;1.70;;
74064;SDS011;62421;51.412;5.432;2023-07-13T00:21:30;7.70;;;1.48;;
74064;SDS011;62421;51.412;5.432;2023-07-13T00:23:55;9.10;;;1.40;;
74064;SDS011;62421;51.412;5.432;2023-07-13T00:26:21;5.67;;;1.40;;
74064;SDS011;62421;51.412;5.432;2023-07-13T00:28:47;9.43;;;2.10;;
74064;SDS011;62421;51.412;5.432;2023-07-13T00:31:12;12.63;;;1.70;;
74064;SDS011;62421;51.412;5.432;2023-07-13T00:33:39;10.65;;;1.52;;
74064;SDS011;62421;51.412;5.432;2023-07-13T00:36:05;12.83;;;1.50;;
74064;SDS011;62421;51.412;5.432;2023-07-13T00:38:31;9.00;;;1.35;;
74064;SDS011;62421;51.412;5.432;2023-07-13T00:40:56;4.43;;;1.20;;
74064;SDS011;62421;51.412;5.432;2023-07-13T00:43:22;8.25;;;1.67;;
74064;SDS011;62421;51.412;5.432;2023-07-13T00:48:19;11.93;;;1.77;;
74064;SDS011;62421;51.412;5.432;2023-07-13T00:50:46;5.75;;;1.58;;
74064;SDS011;62421;51.412;5.432;2023-07-13T00:53:15;16.60;;;2.10;;
74064;SDS011;62421;51.412;5.432;2023-07-13T00:55:42;6.35;;;2.00;;
74064;SDS011;62421;51.412;5.432;2023-07-13T00:58:08;7.23;;;1.83;;
74064;SDS011;62421;51.412;5.432;2023-07-13T01:00:34;6.20;;;2.10;;
74064;SDS011;62421;51.412;5.432;2023-07-13T01:03:01;12.13;;;1.70;;
74064;SDS011;62421;51.412;5.432;2023-07-13T01:05:29;10.98;;;2.55;;
74064;SDS011;62421;51.412;5.432;2023-07-13T01:07:57;6.22;;;1.80;;
74064;SDS011;62421;51.412;5.432;2023-07-13T01:10:23;7.95;;;1.40;;
74064;SDS011;62421;51.412;5.432;2023-07-13T01:12:49;7.63;;;1.87;;
74064;SDS011;62421;51.412;5.432;2023-07-13T01:18:00;5.90;;;2.00;;
74064;SDS011;62421;51.412;5.432;2023-07-13T01:20:26;6.32;;;1.92;;
74064;SDS011;62421;51.412;5.432;2023-07-13T01:22:51;10.30;;;1.87;;
74064;SDS011;62421;51.412;5.432;2023-07-13T01:25:17;10.57;;;1.85;;
74064;SDS011;62421;51.412;5.432;2023-07-13T01:27:43;10.93;;;2.65;;
74064;SDS011;62421;51.412;5.432;2023-07-13T01:30:09;5.13;;;1.50;;
74064;SDS011;62421;51.412;5.432;2023-07-13T01:32:35;10.35;;;2.47;;
74064;SDS011;62421;51.412;5.432;2023-07-13T01:35:02;10.77;;;1.90;;
74064;SDS011;62421;51.412;5.432;2023-07-13T01:37:27;12.13;;;1.98;;
74064;SDS011;62421;51.412;5.432;2023-07-13T01:39:58;4.67;;;1.53;;
74064;SDS011;62421;51.412;5.432;2023-07-13T01:42:23;7.38;;;1.77;;
74064;SDS011;62421;51.412;5.432;2023-07-13T01:44:49;8.07;;;2.33;;
74064;SDS011;62421;51.412;5.432;2023-07-13T01:47:14;11.53;;;2.60;;
74064;SDS011;62421;51.412;5.432;2023-07-13T01:49:39;6.93;;;1.87;;
74064;SDS011;62421;51.412;5.432;2023-07-13T01:52:06;7.07;;;2.20;;
74064;SDS011;62421;51.412;5.432;2023-07-13T01:54:31;8.13;;;1.70;;
74064;SDS011;62421;51.412;5.432;2023-07-13T01:56:58;9.88;;;2.10;;
74064;SDS011;62421;51.412;5.432;2023-07-13T01:59:24;8.27;;;2.03;;
74064;SDS011;62421;51.412;5.432;2023-07-13T02:01:49;8.63;;;1.92;;
74064;SDS011;62421;51.412;5.432;2023-07-13T02:04:15;14.13;;;2.57;;
74064;SDS011;62421;51.412;5.432;2023-07-13T02:06:40;12.47;;;2.20;;
74064;SDS011;62421;51.412;5.432;2023-07-13T02:09:05;13.17;;;2.37;;
74064;SDS011;62421;51.412;5.432;2023-07-13T02:11:32;9.60;;;2.47;;
74064;SDS011;62421;51.412;5.432;2023-07-13T02:14:01;9.68;;;2.22;;
74064;SDS011;62421;51.412;5.432;2023-07-13T02:16:27;6.72;;;1.80;;
74064;SDS011;62421;51.412;5.432;2023-07-13T02:18:53;6.00;;;1.60;;
74064;SDS011;62421;51.412;5.432;2023-07-13T02:21:20;9.30;;;2.05;;
74064;SDS011;62421;51.412;5.432;2023-07-13T02:23:46;8.05;;;1.92;;
74064;SDS011;62421;51.412;5.432;2023-07-13T02:26:12;9.43;;;1.73;;
74064;SDS011;62421;51.412;5.432;2023-07-13T02:28:38;11.13;;;2.28;;
74064;SDS011;62421;51.412;5.432;2023-07-13T02:31:04;11.17;;;1.90;;
74064;SDS011;62421;51.412;5.432;2023-07-13T02:33:31;10.30;;;2.20;;
74064;SDS011;62421;51.412;5.432;2023-07-13T02:35:56;8.98;;;2.17;;
74064;SDS011;62421;51.412;5.432;2023-07-13T02:38:21;6.83;;;1.47;;
74064;SDS011;62421;51.412;5.432;2023-07-13T02:40:47;6.93;;;2.20;;
74064;SDS011;62421;51.412;5.432;2023-07-13T02:43:12;10.27;;;1.80;;
74064;SDS011;62421;51.412;5.432;2023-07-13T02:45:37;9.93;;;2.43;;
74064;SDS011;62421;51.412;5.432;2023-07-13T02:48:04;6.53;;;1.63;;
74064;SDS011;62421;51.412;5.432;2023-07-13T02:50:30;9.60;;;2.70;;
74064;SDS011;62421;51.412;5.432;2023-07-13T02:52:55;8.43;;;2.30;;
74064;SDS011;62421;51.412;5.432;2023-07-13T02:55:20;9.75;;;2.50;;
74064;SDS011;62421;51.412;5.432;2023-07-13T02:57:46;10.57;;;2.37;;
74064;SDS011;62421;51.412;5.432;2023-07-13T03:00:11;8.60;;;1.90;;
74064;SDS011;62421;51.412;5.432;2023-07-13T03:02:37;7.77;;;1.93;;
74064;SDS011;62421;51.412;5.432;2023-07-13T03:05:02;8.87;;;2.67;;
74064;SDS011;62421;51.412;5.432;2023-07-13T03:07:27;12.80;;;2.47;;
74064;SDS011;62421;51.412;5.432;2023-07-13T03:09:55;9.65;;;2.78;;
74064;SDS011;62421;51.412;5.432;2023-07-13T03:12:21;10.00;;;2.17;;
74064;SDS011;62421;51.412;5.432;2023-07-13T03:14:47;9.50;;;2.78;;
74064;SDS011;62421;51.412;5.432;2023-07-13T03:17:12;10.87;;;2.77;;
74064;SDS011;62421;51.412;5.432;2023-07-13T03:19:38;10.77;;;2.23;;
74064;SDS011;62421;51.412;5.432;2023-07-13T03:22:03;12.47;;;2.57;;
74064;SDS011;62421;51.412;5.432;2023-07-13T03:24:29;11.50;;;2.15;;
74064;SDS011;62421;51.412;5.432;2023-07-13T03:26:54;9.33;;;2.67;;
74064;SDS011;62421;51.412;5.432;2023-07-13T03:29:20;14.25;;;2.53;;
74064;SDS011;62421;51.412;5.432;2023-07-13T03:31:45;10.55;;;2.65;;
74064;SDS011;62421;51.412;5.432;2023-07-13T03:34:11;14.20;;;2.20;;
74064;SDS011;62421;51.412;5.432;2023-07-13T03:36:36;11.10;;;2.67;;
74064;SDS011;62421;51.412;5.432;2023-07-13T03:39:02;9.33;;;2.50;;
74064;SDS011;62421;51.412;5.432;2023-07-13T03:41:28;10.57;;;2.15;;
74064;SDS011;62421;51.412;5.432;2023-07-13T03:43:53;13.57;;;2.77;;
74064;SDS011;62421;51.412;5.432;2023-07-13T03:46:19;10.32;;;2.33;;
74064;SDS011;62421;51.412;5.432;2023-07-13T03:48:46;9.90;;;2.33;;
74064;SDS011;62421;51.412;5.432;2023-07-13T03:51:13;10.52;;;3.03;;
74064;SDS011;62421;51.412;5.432;2023-07-13T03:53:40;12.20;;;2.92;;
74064;SDS011;62421;51.412;5.432;2023-07-13T03:56:08;12.97;;;2.80;;
74064;SDS011;62421;51.412;5.432;2023-07-13T03:58:34;13.13;;;2.28;;
74064;SDS011;62421;51.412;5.432;2023-07-13T04:01:03;7.85;;;2.60;;
74064;SDS011;62421;51.412;5.432;2023-07-13T04:03:30;9.80;;;2.70;;
74064;SDS011;62421;51.412;5.432;2023-07-13T04:06:01;12.33;;;2.80;;
74064;SDS011;62421;51.412;5.432;2023-07-13T04:08:32;9.10;;;2.40;;
74064;SDS011;62421;51.412;5.432;2023-07-13T04:11:00;14.27;;;2.85;;
74064;SDS011;62421;51.412;5.432;2023-07-13T04:13:26;9.30;;;3.15;;
74064;SDS011;62421;51.412;5.432;2023-07-13T04:15:52;14.45;;;3.00;;
74064;SDS011;62421;51.412;5.432;2023-07-13T04:18:19;12.93;;;3.25;;
74064;SDS011;62421;51.412;5.432;2023-07-13T04:20:45;14.85;;;3.92;;
74064;SDS011;62421;51.412;5.432;2023-07-13T04:23:11;11.70;;;3.28;;
74064;SDS011;62421;51.412;5.432;2023-07-13T04:25:36;15.83;;;3.87;;
74064;SDS011;62421;51.412;5.432;2023-07-13T04:28:02;17.57;;;3.27;;
74064;SDS011;62421;51.412;5.432;2023-07-13T04:30:29;15.52;;;4.75;;
74064;SDS011;62421;51.412;5.432;2023-07-13T04:32:54;13.40;;;4.30;;
74064;SDS011;62421;51.412;5.432;2023-07-13T04:35:20;15.73;;;4.87;;
74064;SDS011;62421;51.412;5.432;2023-07-13T04:37:49;16.20;;;3.63;;
74064;SDS011;62421;51.412;5.432;2023-07-13T04:40:16;16.97;;;4.13;;
74064;SDS011;62421;51.412;5.432;2023-07-13T04:42:42;21.45;;;5.38;;
74064;SDS011;62421;51.412;5.432;2023-07-13T04:45:09;19.45;;;4.25;;
74064;SDS011;62421;51.412;5.432;2023-07-13T04:47:34;21.95;;;4.95;;
74064;SDS011;62421;51.412;5.432;2023-07-13T04:50:00;14.87;;;4.60;;
74064;SDS011;62421;51.412;5.432;2023-07-13T04:52:26;20.25;;;6.28;;
74064;SDS011;62421;51.412;5.432;2023-07-13T04:54:51;18.17;;;4.70;;
74064;SDS011;62421;51.412;5.432;2023-07-13T04:57:16;16.23;;;4.80;;
74064;SDS011;62421;51.412;5.432;2023-07-13T04:59:42;18.20;;;5.40;;
74064;SDS011;62421;51.412;5.432;2023-07-13T05:02:07;22.83;;;5.67;;
74064;SDS011;62421;51.412;5.432;2023-07-13T05:04:32;25.90;;;5.73;;
74064;SDS011;62421;51.412;5.432;2023-07-13T05:06:58;21.77;;;6.57;;
74064;SDS011;62421;51.412;5.432;2023-07-13T05:09:24;21.77;;;6.10;;
74064;SDS011;62421;51.412;5.432;2023-07-13T05:11:49;18.00;;;5.13;;
74064;SDS011;62421;51.412;5.432;2023-07-13T05:14:15;22.43;;;5.77;;
74064;SDS011;62421;51.412;5.432;2023-07-13T05:16:41;24.90;;;5.82;;
74064;SDS011;62421;51.412;5.432;2023-07-13T05:19:07;17.17;;;5.93;;
74064;SDS011;62421;51.412;5.432;2023-07-13T05:21:33;31.23;;;6.00;;
74064;SDS011;62421;51.412;5.432;2023-07-13T05:23:59;20.35;;;5.13;;
74064;SDS011;62421;51.412;5.432;2023-07-13T05:26:24;20.07;;;5.77;;
74064;SDS011;62421;51.412;5.432;2023-07-13T05:28:50;19.57;;;5.50;;
74064;SDS011;62421;51.412;5.432;2023-07-13T05:31:15;21.23;;;5.83;;
74064;SDS011;62421;51.412;5.432;2023-07-13T05:33:40;22.10;;;5.43;;
74064;SDS011;62421;51.412;5.432;2023-07-13T05:36:06;25.33;;;5.13;;
74064;SDS011;62421;51.412;5.432;2023-07-13T05:38:32;19.85;;;6.00;;
74064;SDS011;62421;51.412;5.432;2023-07-13T05:40:58;16.60;;;5.15;;
74064;SDS011;62421;51.412;5.432;2023-07-13T05:43:24;28.70;;;4.85;;
74064;SDS011;62421;51.412;5.432;2023-07-13T05:45:50;21.13;;;4.97;;
74064;SDS011;62421;51.412;5.432;2023-07-13T05:48:18;17.38;;;5.35;;
74064;SDS011;62421;51.412;5.432;2023-07-13T05:50:43;20.60;;;4.83;;
74064;SDS011;62421;51.412;5.432;2023-07-13T05:53:08;20.30;;;4.47;;
74064;SDS011;62421;51.412;5.432;2023-07-13T05:55:34;22.30;;;5.53;;
74064;SDS011;62421;51.412;5.432;2023-07-13T05:57:59;19.43;;;5.97;;
74064;SDS011;62421;51.412;5.432;2023-07-13T06:00:25;19.83;;;6.07;;
74064;SDS011;62421;51.412;5.432;2023-07-13T06:02:51;26.05;;;5.40;;
74064;SDS011;62421;51.412;5.432;2023-07-13T06:05:17;23.83;;;6.30;;
74064;SDS011;62421;51.412;5.432;2023-07-13T06:07:43;23.60;;;6.45;;
74064;SDS011;62421;51.412;5.432;2023-07-13T06:10:08;24.03;;;5.20;;
74064;SDS011;62421;51.412;5.432;2023-07-13T06:12:34;24.33;;;5.50;;
74064;SDS011;62421;51.412;5.432;2023-07-13T06:14:59;16.00;;;5.77;;
74064;SDS011;62421;51.412;5.432;2023-07-13T06:17:25;21.55;;;5.85;;
74064;SDS011;62421;51.412;5.432;2023-07-13T06:19:50;22.70;;;5.50;;
74064;SDS011;62421;51.412;5.432;2023-07-13T06:22:15;26.13;;;6.70;;
74064;SDS011;62421;51.412;5.432;2023-07-13T06:24:41;23.27;;;6.30;;
74064;SDS011;62421;51.412;5.432;2023-07-13T06:27:06;33.57;;;7.33;;
74064;SDS011;62421;51.412;5.432;2023-07-13T06:29:32;27.90;;;7.72;;
74064;SDS011;62421;51.412;5.432;2023-07-13T06:31:59;22.38;;;6.40;;
74064;SDS011;62421;51.412;5.432;2023-07-13T06:34:24;21.60;;;5.70;;
74064;SDS011;62421;51.412;5.432;2023-07-13T06:36:49;22.63;;;7.20;;
74064;SDS011;62421;51.412;5.432;2023-07-13T06:39:15;21.43;;;6.60;;
74064;SDS011;62421;51.412;5.432;2023-07-13T06:41:40;20.33;;;5.70;;
74064;SDS011;62421;51.412;5.432;2023-07-13T06:44:05;18.23;;;5.50;;
74064;SDS011;62421;51.412;5.432;2023-07-13T06:46:31;20.00;;;6.25;;
74064;SDS011;62421;51.412;5.432;2023-07-13T06:48:57;29.30;;;7.10;;
74064;SDS011;62421;51.412;5.432;2023-07-13T06:51:22;24.20;;;5.75;;
74064;SDS011;62421;51.412;5.432;2023-07-13T06:53:47;25.50;;;5.33;;
74064;SDS011;62421;51.412;5.432;2023-07-13T06:56:14;22.97;;;7.50;;
74064;SDS011;62421;51.412;5.432;2023-07-13T06:58:39;24.65;;;5.53;;
74064;SDS011;62421;51.412;5.432;2023-07-13T07:01:05;26.10;;;5.93;;
74064;SDS011;62421;51.412;5.432;2023-07-13T07:03:30;21.77;;;5.60;;
74064;SDS011;62421;51.412;5.432;2023-07-13T07:06:03;23.43;;;6.07;;
74064;SDS011;62421;51.412;5.432;2023-07-13T07:08:36;22.42;;;5.53;;
74064;SDS011;62421;51.412;5.432;2023-07-13T07:11:02;19.40;;;5.47;;
74064;SDS011;62421;51.412;5.432;2023-07-13T07:13:27;18.33;;;5.47;;
74064;SDS011;62421;51.412;5.432;2023-07-13T07:15:53;17.15;;;4.57;;
74064;SDS011;62421;51.412;5.432;2023-07-13T07:18:18;21.93;;;5.87;;
74064;SDS011;62421;51.412;5.432;2023-07-13T07:20:44;20.03;;;5.60;;
74064;SDS011;62421;51.412;5.432;2023-07-13T07:23:09;19.53;;;5.00;;
74064;SDS011;62421;51.412;5.432;2023-07-13T07:25:34;19.87;;;5.50;;
74064;SDS011;62421;51.412;5.432;2023-07-13T07:28:02;15.05;;;5.03;;
74064;SDS011;62421;51.412;5.432;2023-07-13T07:30:27;14.95;;;4.80;;
74064;SDS011;62421;51.412;5.432;2023-07-13T07:32:53;17.40;;;4.93;;
74064;SDS011;62421;51.412;5.432;2023-07-13T07:35:18;19.80;;;4.70;;
74064;SDS011;62421;51.412;5.432;2023-07-13T07:37:43;17.20;;;4.67;;
74064;SDS011;62421;51.412;5.432;2023-07-13T07:40:09;21.73;;;4.40;;
74064;SDS011;62421;51.412;5.432;2023-07-13T07:42:34;21.57;;;4.77;;
74064;SDS011;62421;51.412;5.432;2023-07-13T07:45:00;19.45;;;3.83;;
74064;SDS011;62421;51.412;5.432;2023-07-13T07:47:26;17.43;;;4.30;;
74064;SDS011;62421;51.412;5.432;2023-07-13T07:49:51;17.10;;;4.40;;
74064;SDS011;62421;51.412;5.432;2023-07-13T07:52:17;24.63;;;4.87;;
74064;SDS011;62421;51.412;5.432;2023-07-13T07:54:42;17.00;;;4.82;;
74064;SDS011;62421;51.412;5.432;2023-07-13T07:57:08;17.42;;;4.32;;
74064;SDS011;62421;51.412;5.432;2023-07-13T07:59:34;14.57;;;4.30;;
74064;SDS011;62421;51.412;5.432;2023-07-13T08:02:02;13.70;;;3.90;;
74064;SDS011;62421;51.412;5.432;2023-07-13T08:04:27;15.25;;;3.88;;
74064;SDS011;62421;51.412;5.432;2023-07-13T08:06:53;16.83;;;3.47;;
74064;SDS011;62421;51.412;5.432;2023-07-13T08:09:18;21.87;;;3.97;;
74064;SDS011;62421;51.412;5.432;2023-07-13T08:11:44;21.80;;;4.20;;
74064;SDS011;62421;51.412;5.432;2023-07-13T08:14:09;14.77;;;4.10;;
74064;SDS011;62421;51.412;5.432;2023-07-13T08:16:34;10.63;;;3.70;;
74064;SDS011;62421;51.412;5.432;2023-07-13T08:19:00;14.95;;;3.70;;
74064;SDS011;62421;51.412;5.432;2023-07-13T08:21:25;10.23;;;3.53;;
74064;SDS011;62421;51.412;5.432;2023-07-13T08:23:50;14.57;;;3.57;;
74064;SDS011;62421;51.412;5.432;2023-07-13T08:26:16;14.33;;;3.47;;
74064;SDS011;62421;51.412;5.432;2023-07-13T08:28:41;11.33;;;3.37;;
74064;SDS011;62421;51.412;5.432;2023-07-13T08:31:07;9.27;;;2.85;;
74064;SDS011;62421;51.412;5.432;2023-07-13T08:33:34;14.48;;;3.38;;
74064;SDS011;62421;51.412;5.432;2023-07-13T08:36:00;11.40;;;3.20;;
74064;SDS011;62421;51.412;5.432;2023-07-13T08:38:26;13.13;;;2.83;;
74064;SDS011;62421;51.412;5.432;2023-07-13T08:40:55;8.67;;;2.97;;
74064;SDS011;62421;51.412;5.432;2023-07-13T08:43:28;16.63;;;2.95;;
74064;SDS011;62421;51.412;5.432;2023-07-13T08:46:02;13.07;;;2.83;;
74064;SDS011;62421;51.412;5.432;2023-07-13T08:48:45;16.05;;;3.42;;
74064;SDS011;62421;51.412;5.432;2023-07-13T08:51:21;9.98;;;2.85;;
74064;SDS011;62421;51.412;5.432;2023-07-13T08:53:54;11.17;;;2.33;;
74064;SDS011;62421;51.412;5.432;2023-07-13T08:56:25;13.85;;;3.58;;
74064;SDS011;62421;51.412;5.432;2023-07-13T08:58:54;20.92;;;3.40;;
74064;SDS011;62421;51.412;5.432;2023-07-13T09:01:24;12.50;;;2.72;;
74064;SDS011;62421;51.412;5.432;2023-07-13T09:03:59;15.20;;;4.38;;
74064;SDS011;62421;51.412;5.432;2023-07-13T09:06:34;14.60;;;2.63;;
74064;SDS011;62421;51.412;5.432;2023-07-13T09:09:10;9.60;;;2.70;;
74064;SDS011;62421;51.412;5.432;2023-07-13T09:11:50;10.73;;;3.10;;
74064;SDS011;62421;51.412;5.432;2023-07-13T09:14:45;15.27;;;3.00;;
74064;SDS011;62421;51.412;5.432;2023-07-13T09:17:22;45.03;;;4.35;;
74064;SDS011;62421;51.412;5.432;2023-07-13T09:20:03;15.47;;;2.70;;
74064;SDS011;62421;51.412;5.432;2023-07-13T09:22:35;11.65;;;2.30;;
74064;SDS011;62421;51.412;5.432;2023-07-13T09:27:48;13.50;;;2.72;;
74064;SDS011;62421;51.412;5.432;2023-07-13T09:30:26;16.60;;;2.47;;
74064;SDS011;62421;51.412;5.432;2023-07-13T09:33:13;22.30;;;2.77;;
74064;SDS011;62421;51.412;5.432;2023-07-13T09:35:39;18.60;;;2.30;;
74064;SDS011;62421;51.412;5.432;2023-07-13T09:38:11;9.33;;;2.23;;
74064;SDS011;62421;51.412;5.432;2023-07-13T09:40:40;9.35;;;2.40;;
74064;SDS011;62421;51.412;5.432;2023-07-13T09:43:08;9.60;;;2.58;;
74064;SDS011;62421;51.412;5.432;2023-07-13T09:45:38;10.75;;;2.55;;
74064;SDS011;62421;51.412;5.432;2023-07-13T09:48:10;34.50;;;4.38;;
74064;SDS011;62421;51.412;5.432;2023-07-13T09:50:41;9.57;;;2.33;;
74064;SDS011;62421;51.412;5.432;2023-07-13T09:53:11;12.65;;;2.47;;
74064;SDS011;62421;51.412;5.432;2023-07-13T09:55:42;13.55;;;2.88;;
74064;SDS011;62421;51.412;5.432;2023-07-13T09:58:29;14.40;;;2.03;;
74064;SDS011;62421;51.412;5.432;2023-07-13T10:01:01;13.30;;;2.63;;
74064;SDS011;62421;51.412;5.432;2023-07-13T10:03:31;8.50;;;2.23;;
74064;SDS011;62421;51.412;5.432;2023-07-13T10:06:13;11.20;;;2.28;;
74064;SDS011;62421;51.412;5.432;2023-07-13T10:08:40;10.85;;;3.13;;
74064;SDS011;62421;51.412;5.432;2023-07-13T10:11:09;14.03;;;2.27;;
74064;SDS011;62421;51.412;5.432;2023-07-13T10:13:36;11.48;;;2.47;;
74064;SDS011;62421;51.412;5.432;2023-07-13T10:16:06;11.18;;;2.55;;
74064;SDS011;62421;51.412;5.432;2023-07-13T10:18:40;15.23;;;3.10;;
74064;SDS011;62421;51.412;5.432;2023-07-13T10:21:16;13.23;;;2.75;;
74064;SDS011;62421;51.412;5.432;2023-07-13T10:23:45;16.08;;;3.05;;
74064;SDS011;62421;51.412;5.432;2023-07-13T10:26:17;10.07;;;2.22;;
74064;SDS011;62421;51.412;5.432;2023-07-13T10:28:50;10.73;;;2.30;;
74064;SDS011;62421;51.412;5.432;2023-07-13T10:31:20;10.43;;;2.10;;
74064;SDS011;62421;51.412;5.432;2023-07-13T10:33:47;10.88;;;1.90;;
74064;SDS011;62421;51.412;5.432;2023-07-13T10:38:42;7.15;;;2.28;;
74064;SDS011;62421;51.412;5.432;2023-07-13T10:41:12;8.63;;;2.63;;
74064;SDS011;62421;51.412;5.432;2023-07-13T10:43:43;5.70;;;1.67;;
74064;SDS011;62421;51.412;5.432;2023-07-13T10:46:12;12.32;;;1.88;;
74064;SDS011;62421;51.412;5.432;2023-07-13T10:48:40;13.90;;;2.15;;
74064;SDS011;62421;51.412;5.432;2023-07-13T10:51:08;11.88;;;2.20;;
74064;SDS011;62421;51.412;5.432;2023-07-13T10:53:38;11.02;;;2.40;;
74064;SDS011;62421;51.412;5.432;2023-07-13T10:58:41;11.05;;;1.90;;
74064;SDS011;62421;51.412;5.432;2023-07-13T11:01:17;12.88;;;2.33;;
74064;SDS011;62421;51.412;5.432;2023-07-13T11:06:13;11.37;;;2.10;;
74064;SDS011;62421;51.412;5.432;2023-07-13T11:08:59;7.55;;;1.80;;
74064;SDS011;62421;51.412;5.432;2023-07-13T11:11:43;13.53;;;2.10;;
74064;SDS011;62421;51.412;5.432;2023-07-13T11:15:11;6.70;;;1.63;;
74064;SDS011;62421;51.412;5.432;2023-07-13T11:17:51;11.40;;;2.20;;
74064;SDS011;62421;51.412;5.432;2023-07-13T11:20:35;7.13;;;2.20;;
74064;SDS011;62421;51.412;5.432;2023-07-13T11:25:38;8.85;;;2.15;;
74064;SDS011;62421;51.412;5.432;2023-07-13T11:33:19;7.53;;;1.90;;
74064;SDS011;62421;51.412;5.432;2023-07-13T11:40:58;16.00;;;2.27;;
74064;SDS011;62421;51.412;5.432;2023-07-13T11:43:29;6.93;;;1.73;;
74064;SDS011;62421;51.412;5.432;2023-07-13T11:45:55;9.40;;;1.70;;
74064;SDS011;62421;51.412;5.432;2023-07-13T11:48:25;17.87;;;1.80;;
74064;SDS011;62421;51.412;5.432;2023-07-13T11:50:59;9.00;;;1.60;;
74064;SDS011;62421;51.412;5.432;2023-07-13T11:53:30;12.00;;;1.98;;
74064;SDS011;62421;51.412;5.432;2023-07-13T11:56:03;17.97;;;2.87;;
74064;SDS011;62421;51.412;5.432;2023-07-13T11:58:30;19.17;;;2.20;;
74064;SDS011;62421;51.412;5.432;2023-07-13T12:00:57;13.60;;;2.28;;
74064;SDS011;62421;51.412;5.432;2023-07-13T12:03:24;7.57;;;1.60;;
74064;SDS011;62421;51.412;5.432;2023-07-13T12:05:56;8.23;;;1.98;;
74064;SDS011;62421;51.412;5.432;2023-07-13T12:08:27;7.63;;;1.92;;
74064;SDS011;62421;51.412;5.432;2023-07-13T12:11:00;19.92;;;3.33;;
74064;SDS011;62421;51.412;5.432;2023-07-13T12:13:34;13.30;;;2.67;;
74064;SDS011;62421;51.412;5.432;2023-07-13T12:16:00;9.70;;;2.00;;
74064;SDS011;62421;51.412;5.432;2023-07-13T12:18:30;13.75;;;1.85;;
74064;SDS011;62421;51.412;5.432;2023-07-13T12:20:57;10.60;;;2.03;;
74064;SDS011;62421;51.412;5.432;2023-07-13T12:25:52;16.23;;;2.25;;
74064;SDS011;62421;51.412;5.432;2023-07-13T12:28:22;7.43;;;2.03;;
74064;SDS011;62421;51.412;5.432;2023-07-13T12:31:03;10.35;;;2.08;;
74064;SDS011;62421;51.412;5.432;2023-07-13T12:33:40;7.35;;;2.05;;
74064;SDS011;62421;51.412;5.432;2023-07-13T12:36:06;9.97;;;2.00;;
74064;SDS011;62421;51.412;5.432;2023-07-13T12:38:32;6.78;;;1.55;;
74064;SDS011;62421;51.412;5.432;2023-07-13T12:40:57;6.93;;;2.05;;
74064;SDS011;62421;51.412;5.432;2023-07-13T12:43:23;15.05;;;2.50;;
74064;SDS011;62421;51.412;5.432;2023-07-13T12:46:04;11.82;;;1.58;;
74064;SDS011;62421;51.412;5.432;2023-07-13T12:48:41;9.33;;;2.37;;
74064;SDS011;62421;51.412;5.432;2023-07-13T12:51:10;7.90;;;1.80;;
74064;SDS011;62421;51.412;5.432;2023-07-13T12:53:41;7.53;;;2.13;;
74064;SDS011;62421;51.412;5.432;2023-07-13T12:56:21;9.77;;;2.20;;
74064;SDS011;62421;51.412;5.432;2023-07-13T12:58:48;21.50;;;3.22;;
74064;SDS011;62421;51.412;5.432;2023-07-13T13:01:19;13.00;;;1.77;;
74064;SDS011;62421;51.412;5.432;2023-07-13T13:03:48;8.00;;;2.25;;
74064;SDS011;62421;51.412;5.432;2023-07-13T13:08:45;12.87;;;2.30;;
74064;SDS011;62421;51.412;5.432;2023-07-13T13:11:11;12.90;;;2.45;;
74064;SDS011;62421;51.412;5.432;2023-07-13T13:13:37;13.47;;;2.53;;
74064;SDS011;62421;51.412;5.432;2023-07-13T13:16:08;10.27;;;2.60;;
74064;SDS011;62421;51.412;5.432;2023-07-13T13:18:37;14.88;;;2.88;;
74064;SDS011;62421;51.412;5.432;2023-07-13T13:21:02;8.87;;;2.57;;
74064;SDS011;62421;51.412;5.432;2023-07-13T13:23:28;18.50;;;3.37;;
74064;SDS011;62421;51.412;5.432;2023-07-13T13:25:53;10.87;;;2.83;;
74064;SDS011;62421;51.412;5.432;2023-07-13T13:28:19;12.50;;;2.53;;
74064;SDS011;62421;51.412;5.432;2023-07-13T13:30:45;10.83;;;3.30;;
74064;SDS011;62421;51.412;5.432;2023-07-13T13:33:16;9.32;;;3.00;;
74064;SDS011;62421;51.412;5.432;2023-07-13T13:35:43;8.85;;;3.13;;
74064;SDS011;62421;51.412;5.432;2023-07-13T13:38:16;8.27;;;2.60;;
74064;SDS011;62421;51.412;5.432;2023-07-13T13:40:44;10.00;;;3.10;;
74064;SDS011;62421;51.412;5.432;2023-07-13T13:43:14;12.65;;;2.67;;
74064;SDS011;62421;51.412;5.432;2023-07-13T13:45:51;15.63;;;3.58;;
74064;SDS011;62421;51.412;5.432;2023-07-13T13:48:18;7.03;;;2.70;;
74064;SDS011;62421;51.412;5.432;2023-07-13T13:50:52;10.02;;;2.67;;
74064;SDS011;62421;51.412;5.432;2023-07-13T13:53:17;7.07;;;2.37;;
74064;SDS011;62421;51.412;5.432;2023-07-13T13:55:43;10.70;;;2.67;;
74064;SDS011;62421;51.412;5.432;2023-07-13T13:58:09;8.53;;;2.53;;
74064;SDS011;62421;51.412;5.432;2023-07-13T14:00:35;7.97;;;2.40;;
74064;SDS011;62421;51.412;5.432;2023-07-13T14:03:01;14.07;;;2.60;;
74064;SDS011;62421;51.412;5.432;2023-07-13T14:05:27;9.73;;;2.37;;
74064;SDS011;62421;51.412;5.432;2023-07-13T14:07:53;8.63;;;2.67;;
74064;SDS011;62421;51.412;5.432;2023-07-13T14:10:20;23.02;;;3.40;;
74064;SDS011;62421;51.412;5.432;2023-07-13T14:12:46;6.97;;;1.83;;
74064;SDS011;62421;51.412;5.432;2023-07-13T14:15:16;7.95;;;1.90;;
74064;SDS011;62421;51.412;5.432;2023-07-13T14:17:45;9.60;;;2.47;;
74064;SDS011;62421;51.412;5.432;2023-07-13T14:20:15;15.03;;;1.70;;
74064;SDS011;62421;51.412;5.432;2023-07-13T14:22:41;8.35;;;1.92;;
74064;SDS011;62421;51.412;5.432;2023-07-13T14:25:13;6.50;;;2.20;;
74064;SDS011;62421;51.412;5.432;2023-07-13T14:27:40;6.55;;;1.67;;
74064;SDS011;62421;51.412;5.432;2023-07-13T14:30:12;6.22;;;1.63;;
74064;SDS011;62421;51.412;5.432;2023-07-13T14:32:37;6.00;;;1.80;;
74064;SDS011;62421;51.412;5.432;2023-07-13T14:35:03;7.30;;;1.58;;
74064;SDS011;62421;51.412;5.432;2023-07-13T14:37:28;4.55;;;1.70;;
74064;SDS011;62421;51.412;5.432;2023-07-13T14:39:54;4.50;;;1.67;;
74064;SDS011;62421;51.412;5.432;2023-07-13T14:42:19;6.53;;;1.87;;
74064;SDS011;62421;51.412;5.432;2023-07-13T14:44:45;4.83;;;1.40;;
74064;SDS011;62421;51.412;5.432;2023-07-13T14:47:10;6.83;;;1.90;;
74064;SDS011;62421;51.412;5.432;2023-07-13T14:49:37;6.03;;;2.05;;
74064;SDS011;62421;51.412;5.432;2023-07-13T14:52:12;7.53;;;1.83;;
74064;SDS011;62421;51.412;5.432;2023-07-13T14:54:41;7.43;;;1.50;;
74064;SDS011;62421;51.412;5.432;2023-07-13T14:57:09;4.88;;;1.33;;
74064;SDS011;62421;51.412;5.432;2023-07-13T14:59:35;5.33;;;1.60;;
74064;SDS011;62421;51.412;5.432;2023-07-13T15:02:01;4.88;;;1.30;;
74064;SDS011;62421;51.412;5.432;2023-07-13T15:04:26;4.83;;;1.27;;
74064;SDS011;62421;51.412;5.432;2023-07-13T15:06:56;8.27;;;1.60;;
74064;SDS011;62421;51.412;5.432;2023-07-13T15:09:24;5.35;;;1.23;;
74064;SDS011;62421;51.412;5.432;2023-07-13T15:11:57;5.97;;;1.60;;
74064;SDS011;62421;51.412;5.432;2023-07-13T15:14:24;6.70;;;1.55;;
74064;SDS011;62421;51.412;5.432;2023-07-13T15:16:51;5.53;;;1.77;;